createdAt,value
2022-09-28T00:01:44.944Z,100.00
2022-09-28T00:04:48.955Z,100.00
2022-09-28T00:07:51.777Z,100.00
2022-09-28T00:10:56.055Z,100.00
2022-09-28T00:14:03.407Z,100.00
2022-09-28T00:17:05.987Z,100.00
2022-09-28T00:20:10.596Z,100.00
2022-09-28T00:23:13.193Z,100.00
2022-09-28T00:26:15.734Z,100.00
2022-09-28T00:29:21.809Z,100.00
2022-09-28T00:32:25.043Z,100.00
2022-09-28T00:35:28.967Z,100.00
2022-09-28T00:38:31.530Z,100.00
2022-09-28T00:41:34.265Z,100.00
2022-09-28T00:44:42.361Z,100.00
2022-09-28T00:47:51.407Z,100.00
2022-09-28T00:50:56.025Z,100.00
2022-09-28T00:54:00.651Z,100.00
2022-09-28T00:57:04.965Z,100.00
2022-09-28T01:00:09.374Z,100.00
2022-09-28T01:03:14.185Z,100.00
2022-09-28T01:06:20.260Z,100.00
2022-09-28T01:09:23.314Z,100.00
2022-09-28T01:12:26.088Z,100.00
2022-09-28T01:15:30.742Z,100.00
2022-09-28T01:18:41.042Z,100.00
2022-09-28T01:21:51.878Z,100.00
2022-09-28T01:25:01.029Z,100.00
2022-09-28T01:28:08.704Z,100.00
2022-09-28T01:31:13.643Z,100.00
2022-09-28T01:34:22.173Z,100.00
2022-09-28T01:37:29.467Z,100.00
2022-09-28T01:40:33.806Z,100.00
2022-09-28T01:43:41.477Z,100.00
2022-09-28T01:46:48.181Z,100.00
2022-09-28T01:49:57.481Z,100.00
2022-09-28T01:53:06.702Z,100.00
2022-09-28T01:56:14.284Z,100.00
2022-09-28T01:59:20.721Z,100.00
2022-09-28T02:02:27.539Z,100.00
2022-09-28T02:05:33.808Z,100.00
2022-09-28T02:08:40.985Z,100.00
2022-09-28T02:11:48.273Z,100.00
2022-09-28T02:14:56.222Z,100.00
2022-09-28T02:17:58.891Z,100.00
2022-09-28T02:21:09.853Z,100.00
2022-09-28T02:24:21.356Z,100.00
2022-09-28T02:27:32.763Z,100.00
2022-09-28T02:30:38.876Z,100.00
2022-09-28T02:33:44.556Z,100.00
2022-09-28T02:36:47.944Z,100.00
2022-09-28T02:39:50.415Z,100.00
2022-09-28T02:43:03.164Z,100.00
2022-09-28T02:46:17.589Z,100.00
2022-09-28T02:49:28.908Z,100.00
2022-09-28T02:52:51.344Z,100.00
2022-09-28T02:56:11.491Z,100.00
2022-09-28T02:59:21.653Z,100.00
2022-09-28T03:02:34.994Z,100.00
2022-09-28T03:05:47.600Z,100.00
2022-09-28T03:08:55.738Z,100.00
2022-09-28T03:12:02.065Z,100.00
2022-09-28T03:15:13.190Z,100.00
2022-09-28T03:18:17.266Z,100.00
2022-09-28T03:21:19.856Z,100.00
2022-09-28T03:24:22.509Z,100.00
2022-09-28T03:27:25.077Z,100.00
2022-09-28T03:30:27.719Z,100.00
2022-09-28T03:33:31.765Z,100.00
2022-09-28T03:36:34.270Z,100.00
2022-09-28T03:39:36.802Z,100.00
2022-09-28T03:42:39.292Z,100.00
2022-09-28T03:45:41.843Z,100.00
2022-09-28T03:48:45.823Z,100.00
2022-09-28T03:51:48.310Z,100.00
2022-09-28T03:54:50.807Z,100.00
2022-09-28T03:57:56.604Z,100.00
2022-09-28T04:01:03.773Z,100.00
2022-09-28T04:04:07.666Z,100.00
2022-09-28T04:07:10.148Z,100.00
2022-09-28T04:10:12.650Z,100.00
2022-09-28T04:13:15.705Z,100.00
2022-09-28T04:16:18.905Z,100.00
2022-09-28T04:19:22.965Z,100.00
2022-09-28T04:22:25.470Z,100.00
2022-09-28T04:25:27.940Z,100.00
2022-09-28T04:28:48.069Z,100.00
2022-09-28T04:31:52.790Z,100.00
2022-09-28T04:34:56.771Z,100.00
2022-09-28T04:37:59.239Z,100.00
2022-09-28T04:41:02.159Z,100.00
2022-09-28T04:44:04.683Z,100.00
2022-09-28T04:47:07.197Z,100.00
2022-09-28T04:50:11.295Z,100.00
2022-09-28T04:53:13.782Z,100.00
2022-09-28T04:56:17.593Z,100.00
2022-09-28T04:59:20.066Z,100.00
2022-09-28T05:02:22.658Z,100.00
2022-09-28T05:05:26.515Z,100.00
2022-09-28T05:08:29.500Z,100.00
2022-09-28T05:11:31.971Z,100.00
2022-09-28T05:14:34.478Z,100.00
2022-09-28T05:17:37.057Z,100.00
2022-09-28T05:20:42.754Z,100.00
2022-09-28T05:23:47.651Z,100.00
2022-09-28T05:26:50.191Z,100.00
2022-09-28T05:29:52.713Z,100.00
2022-09-28T05:32:55.176Z,100.00
2022-09-28T05:36:01.352Z,100.00
2022-09-28T05:39:04.436Z,100.00
2022-09-28T05:42:07.893Z,100.00
2022-09-28T05:45:11.621Z,100.00
2022-09-28T05:48:14.089Z,100.00
2022-09-28T05:51:17.944Z,100.00
2022-09-28T05:54:20.657Z,100.00
2022-09-28T05:57:23.277Z,100.00
2022-09-28T06:00:26.083Z,100.00
2022-09-28T06:03:28.612Z,100.00
2022-09-28T06:06:32.468Z,100.00
2022-09-28T06:09:34.949Z,100.00
2022-09-28T06:12:37.398Z,100.00
2022-09-28T06:15:43.401Z,100.00
2022-09-28T06:18:45.866Z,100.00
2022-09-28T06:21:49.691Z,100.00
2022-09-28T06:24:52.183Z,100.00
2022-09-28T06:27:56.363Z,100.00
2022-09-28T06:31:00.642Z,100.00
2022-09-28T06:34:03.148Z,100.00
2022-09-28T06:37:06.943Z,100.00
2022-09-28T06:40:10.181Z,100.00
2022-09-28T06:43:15.114Z,100.00
2022-09-28T06:46:17.683Z,100.00
2022-09-28T06:49:20.186Z,100.00
2022-09-28T06:52:24.023Z,100.00
2022-09-28T06:55:27.404Z,100.00
2022-09-28T06:58:31.431Z,100.00
2022-09-28T07:01:33.941Z,100.00
2022-09-28T07:04:36.625Z,100.00
2022-09-28T07:07:42.841Z,100.00
2022-09-28T07:10:47.410Z,100.00
2022-09-28T07:13:51.375Z,100.00
2022-09-28T07:17:12.251Z,100.00
2022-09-28T07:20:19.467Z,100.00
2022-09-28T07:23:23.835Z,100.00
2022-09-28T07:26:26.697Z,100.00
2022-09-28T07:29:29.145Z,100.00
2022-09-28T07:35:41.691Z,100.00
2022-09-28T07:38:45.489Z,100.00
2022-09-28T07:41:48.777Z,100.00
2022-09-28T07:44:51.364Z,100.00
2022-09-28T07:47:56.321Z,100.00
2022-09-28T07:51:00.123Z,100.00
2022-09-28T07:54:03.952Z,100.00
2022-09-28T07:57:06.908Z,100.00
2022-09-28T08:00:10.669Z,100.00
2022-09-28T08:03:13.174Z,100.00
2022-09-28T08:06:17.590Z,100.00
2022-09-28T08:09:21.408Z,100.00
2022-09-28T08:12:23.885Z,100.00
2022-09-28T08:15:27.153Z,100.00
2022-09-28T08:18:29.869Z,100.00
2022-09-28T08:21:46.276Z,100.00
2022-09-28T08:24:50.562Z,100.00
2022-09-28T08:27:53.076Z,100.00
2022-09-28T08:30:55.653Z,100.00
2022-09-28T08:33:58.607Z,100.00
2022-09-28T08:37:01.081Z,100.00
2022-09-28T08:40:05.691Z,100.00
2022-09-28T08:43:23.622Z,100.00
2022-09-28T08:46:29.508Z,100.00
2022-09-28T08:49:37.821Z,100.00
2022-09-28T08:52:41.549Z,100.00
2022-09-28T08:55:46.361Z,100.00
2022-09-28T08:58:55.432Z,100.00
2022-09-28T09:02:03.415Z,100.00
2022-09-28T09:05:08.922Z,100.00
2022-09-28T09:08:27.090Z,100.00
2022-09-28T09:11:45.144Z,100.00
2022-09-28T09:15:13.005Z,100.00
2022-09-28T09:18:27.397Z,100.00
2022-09-28T09:21:40.963Z,100.00
2022-09-28T09:24:50.635Z,100.00
2022-09-28T09:28:28.237Z,100.00
2022-09-28T09:31:42.731Z,100.00
2022-09-28T09:35:05.463Z,100.00
2022-09-28T09:38:21.988Z,100.00
2022-09-28T09:41:39.993Z,100.00
2022-09-28T09:44:59.757Z,100.00
2022-09-28T09:48:04.663Z,100.00
2022-09-28T09:51:18.973Z,100.00
2022-09-28T09:54:27.660Z,100.00
2022-09-28T09:57:34.377Z,100.00
2022-09-28T10:00:41.796Z,100.00
2022-09-28T10:03:48.760Z,100.00
2022-09-28T10:06:54.428Z,100.00
2022-09-28T10:09:59.302Z,100.00
2022-09-28T10:13:02.534Z,99.05
2022-09-28T10:16:08.065Z,100.00
2022-09-28T10:19:12.871Z,100.00
2022-09-28T10:22:23.724Z,100.00
2022-09-28T10:25:26.449Z,100.00
2022-09-28T10:28:36.515Z,100.00
2022-09-28T10:31:42.523Z,100.00
2022-09-28T10:34:48.839Z,100.00
2022-09-28T10:37:59.169Z,100.00
2022-09-28T10:41:09.520Z,100.00
2022-09-28T10:44:19.360Z,99.96
2022-09-28T10:47:25.520Z,100.00
2022-09-28T10:50:29.416Z,100.00
2022-09-28T10:53:32.025Z,98.68
2022-09-28T10:56:38.043Z,100.00
2022-09-28T10:59:42.542Z,97.17
2022-09-28T11:02:46.464Z,95.57
2022-09-28T11:06:01.657Z,96.29
2022-09-28T11:09:08.425Z,98.46
2022-09-28T11:12:18.127Z,96.50
2022-09-28T11:15:23.295Z,94.99
2022-09-28T11:18:32.328Z,96.55
2022-09-28T11:21:42.863Z,92.91
2022-09-28T11:24:45.404Z,95.82
2022-09-28T11:27:57.929Z,84.48
2022-09-28T11:31:01.773Z,85.39
2022-09-28T11:34:14.288Z,79.06
2022-09-28T11:37:44.433Z,79.38
2022-09-28T11:41:01.284Z,82.08
2022-09-28T11:44:19.380Z,78.41
2022-09-28T11:47:55.956Z,73.73
2022-09-28T11:51:05.149Z,69.35
2022-09-28T11:54:16.555Z,73.54
2022-09-28T11:57:23.097Z,79.37
2022-09-28T12:00:26.058Z,79.41
2022-09-28T12:03:36.762Z,81.27
2022-09-28T12:06:45.983Z,82.00
2022-09-28T12:09:55.013Z,83.67
2022-09-28T12:13:02.470Z,86.76
2022-09-28T12:19:38.154Z,82.04
2022-09-28T12:22:46.809Z,78.93
2022-09-28T12:25:55.950Z,85.45
2022-09-28T12:29:01.450Z,87.36
2022-09-28T12:32:11.773Z,85.85
2022-09-28T12:35:16.800Z,81.98
2022-09-28T12:38:38.054Z,73.84
2022-09-28T12:41:56.438Z,76.51
2022-09-28T12:45:20.375Z,67.65
2022-09-28T12:48:40.513Z,65.11
2022-09-28T12:51:49.871Z,61.10
2022-09-28T12:55:18.955Z,68.65
2022-09-28T12:58:36.441Z,63.22
2022-09-28T13:01:59.047Z,64.35
2022-09-28T13:05:17.178Z,64.83
2022-09-28T13:08:26.098Z,63.37
2022-09-28T13:11:34.784Z,63.63
2022-09-28T13:15:02.675Z,64.78
2022-09-28T13:18:12.662Z,61.69
2022-09-28T13:21:28.239Z,62.70
2022-09-28T13:24:36.042Z,68.40
2022-09-28T13:27:45.362Z,62.21
2022-09-28T13:30:50.273Z,57.73
2022-09-28T13:33:53.893Z,60.08
2022-09-28T13:37:19.873Z,62.12
2022-09-28T13:40:57.406Z,60.41
2022-09-28T13:44:33.837Z,61.22
2022-09-28T13:47:53.772Z,66.20
2022-09-28T13:51:21.878Z,66.93
2022-09-28T13:54:51.292Z,72.17
2022-09-28T13:57:57.748Z,68.87
2022-09-28T14:01:08.411Z,71.57
2022-09-28T14:04:16.420Z,72.22
2022-09-28T14:07:22.896Z,74.60
2022-09-28T14:10:51.566Z,76.42
2022-09-28T14:14:02.146Z,77.55
2022-09-28T14:17:53.432Z,74.36
2022-09-28T14:21:12.608Z,76.50
2022-09-28T14:24:27.333Z,74.47
2022-09-28T14:27:45.047Z,77.44
2022-09-28T14:30:52.969Z,77.97
2022-09-28T14:33:58.105Z,76.85
2022-09-28T14:37:22.044Z,74.40
2022-09-28T14:40:49.573Z,79.67
2022-09-28T14:44:03.498Z,78.74
2022-09-28T14:47:34.058Z,75.71
2022-09-28T14:50:36.779Z,78.56
2022-09-28T14:53:41.152Z,80.51
2022-09-28T14:56:48.105Z,81.23
2022-09-28T14:59:50.754Z,83.56
2022-09-28T15:02:56.008Z,82.61
2022-09-28T15:05:58.581Z,85.02
2022-09-28T15:09:02.444Z,87.98
2022-09-28T15:12:08.182Z,88.60
2022-09-28T15:15:26.665Z,88.25
2022-09-28T15:18:55.286Z,89.09
2022-09-28T15:21:57.846Z,88.86
2022-09-28T15:25:03.268Z,90.96
2022-09-28T15:28:19.070Z,90.12
2022-09-28T15:31:23.921Z,85.84
2022-09-28T15:34:49.054Z,89.50
2022-09-28T15:37:52.283Z,82.14
2022-09-28T15:40:56.562Z,86.30
2022-09-28T15:44:09.618Z,89.92
2022-09-28T15:47:14.777Z,88.52
2022-09-28T15:50:23.842Z,87.81
2022-09-28T15:53:27.476Z,90.49
2022-09-28T15:56:32.183Z,90.54
2022-09-28T15:59:36.702Z,89.56
2022-09-28T16:02:39.429Z,91.21
2022-09-28T16:05:46.593Z,91.43
2022-09-28T16:08:49.448Z,92.48
2022-09-28T16:11:53.284Z,92.78
2022-09-28T16:14:56.825Z,93.89
2022-09-28T16:18:02.856Z,94.26
2022-09-28T16:21:40.825Z,93.03
2022-09-28T16:24:43.653Z,93.86
2022-09-28T16:27:47.486Z,94.09
2022-09-28T16:31:01.620Z,96.09
2022-09-28T16:34:19.866Z,95.09
2022-09-28T16:37:32.260Z,95.36
2022-09-28T16:40:40.818Z,94.61
2022-09-28T16:43:45.687Z,95.78
2022-09-28T16:46:48.452Z,95.29
2022-09-28T16:49:51.465Z,96.20
2022-09-28T16:53:29.705Z,96.75
2022-09-28T16:56:32.978Z,96.63
2022-09-28T16:59:38.249Z,96.22
2022-09-28T17:02:46.582Z,96.80
2022-09-28T17:05:49.844Z,97.52
2022-09-28T17:08:52.363Z,97.23
2022-09-28T17:11:56.633Z,96.73
2022-09-28T17:15:00.817Z,97.40
2022-09-28T17:18:03.616Z,97.18
2022-09-28T17:21:10.698Z,97.70
2022-09-28T17:24:13.223Z,97.71
2022-09-28T17:27:20.896Z,97.21
2022-09-28T17:30:25.841Z,96.99
2022-09-28T17:33:29.160Z,97.00
2022-09-28T17:36:31.720Z,97.24
2022-09-28T17:39:34.808Z,97.68
2022-09-28T17:42:37.287Z,97.02
2022-09-28T17:45:41.447Z,98.02
2022-09-28T17:48:46.024Z,97.34
2022-09-28T17:51:50.047Z,97.97
2022-09-28T17:54:52.548Z,97.93
2022-09-28T17:57:55.375Z,98.33
2022-09-28T18:00:59.310Z,98.45
2022-09-28T18:04:02.549Z,99.12
2022-09-28T18:07:05.086Z,98.48
2022-09-28T18:10:08.775Z,98.99
2022-09-28T18:13:11.440Z,98.05
2022-09-28T18:16:15.918Z,98.20
2022-09-28T18:19:18.475Z,98.22
2022-09-28T18:22:20.953Z,98.04
2022-09-28T18:25:23.489Z,98.82
2022-09-28T18:28:26.099Z,98.89
2022-09-28T18:31:30.124Z,98.37
2022-09-28T18:34:36.404Z,99.05
2022-09-28T18:37:39.882Z,99.01
2022-09-28T18:40:43.077Z,99.45
2022-09-28T18:43:50.003Z,98.84
2022-09-28T18:46:54.310Z,98.63
2022-09-28T18:49:58.490Z,99.13
2022-09-28T18:53:11.413Z,98.81
2022-09-28T18:56:18.111Z,98.93
2022-09-28T18:59:20.664Z,98.89
2022-09-28T19:02:24.553Z,98.67
2022-09-28T19:05:27.453Z,99.54
2022-09-28T19:08:29.966Z,99.23
2022-09-28T19:11:32.927Z,98.27
2022-09-28T19:14:35.419Z,98.46
2022-09-28T19:17:39.695Z,98.41
2022-09-28T19:20:42.185Z,98.57
2022-09-28T19:23:49.181Z,99.18
2022-09-28T19:26:53.473Z,98.73
2022-09-28T19:29:55.968Z,99.13
2022-09-28T19:32:59.957Z,98.51
2022-09-28T19:36:05.265Z,99.34
2022-09-28T19:39:07.841Z,98.88
2022-09-28T19:42:10.330Z,98.95
2022-09-28T19:45:12.808Z,98.91
2022-09-28T19:48:16.709Z,98.63
2022-09-28T19:51:19.502Z,98.58
2022-09-28T19:54:22.168Z,99.04
2022-09-28T19:57:25.855Z,98.76
2022-09-28T20:00:28.551Z,98.68
2022-09-28T20:03:32.384Z,98.81
2022-09-28T20:06:34.889Z,99.01
2022-09-28T20:09:37.474Z,98.88
2022-09-28T20:12:42.150Z,98.47
2022-09-28T20:15:45.211Z,99.00
2022-09-28T20:18:50.333Z,98.94
2022-09-28T20:21:52.830Z,98.98
2022-09-28T20:24:55.325Z,99.24
2022-09-28T20:27:58.329Z,99.35
2022-09-28T20:31:03.132Z,99.64
2022-09-28T20:34:07.831Z,99.13
2022-09-28T20:37:12.398Z,99.05
2022-09-28T20:40:14.943Z,99.19
2022-09-28T20:43:17.424Z,99.39
2022-09-28T20:46:21.843Z,99.99
2022-09-28T20:49:27.121Z,100.00
2022-09-28T20:52:29.605Z,99.73
2022-09-28T20:55:32.094Z,99.58
2022-09-28T20:58:35.181Z,100.00
2022-09-28T21:01:37.784Z,99.58
2022-09-28T21:04:41.795Z,99.57
2022-09-28T21:07:44.276Z,99.33
2022-09-28T21:10:46.852Z,99.57
2022-09-28T21:13:52.571Z,99.07
2022-09-28T21:16:55.151Z,98.59
2022-09-28T21:19:59.152Z,98.78
2022-09-28T21:23:02.280Z,99.27
2022-09-28T21:26:06.863Z,98.75
2022-09-28T21:29:13.285Z,99.15
2022-09-28T21:32:15.771Z,99.29
2022-09-28T21:35:19.597Z,98.87
2022-09-28T21:38:22.185Z,99.38
2022-09-28T21:41:25.435Z,99.20
2022-09-28T21:44:28.007Z,98.93
2022-09-28T21:47:30.742Z,99.12
2022-09-28T21:50:34.591Z,99.26
2022-09-28T21:53:38.629Z,98.81
2022-09-28T21:56:41.187Z,99.19
2022-09-28T21:59:43.683Z,99.13
2022-09-28T22:02:46.488Z,99.14
2022-09-28T22:05:53.002Z,99.07
2022-09-28T22:08:55.963Z,100.00
2022-09-28T22:11:58.574Z,100.00
2022-09-28T22:15:01.090Z,100.00
2022-09-28T22:18:03.838Z,100.00
2022-09-28T22:21:09.842Z,100.00
2022-09-28T22:24:12.380Z,100.00
2022-09-28T22:27:16.315Z,100.00
2022-09-28T22:30:18.805Z,100.00
2022-09-28T22:33:21.320Z,100.00
2022-09-28T22:36:25.826Z,100.00
2022-09-28T22:39:28.372Z,100.00
2022-09-28T22:42:32.530Z,100.00
2022-09-28T22:45:35.091Z,100.00
2022-09-28T22:48:38.463Z,100.00
2022-09-28T22:51:42.391Z,100.00
2022-09-28T22:54:45.483Z,100.00
2022-09-28T22:57:48.014Z,99.92
2022-09-28T23:00:50.658Z,99.97
2022-09-28T23:03:54.338Z,100.00
2022-09-28T23:06:58.185Z,99.67
2022-09-28T23:10:00.665Z,99.24
2022-09-28T23:13:03.149Z,99.16
2022-09-28T23:16:07.650Z,99.96
2022-09-28T23:19:10.226Z,100.00
2022-09-28T23:22:14.066Z,100.00
2022-09-28T23:25:17.987Z,100.00
2022-09-28T23:28:21.457Z,99.58
2022-09-28T23:31:26.438Z,99.41
2022-09-28T23:34:28.961Z,99.57
2022-09-28T23:37:32.799Z,99.35
2022-09-28T23:40:35.336Z,99.32
2022-09-28T23:43:37.875Z,99.51
2022-09-28T23:46:40.393Z,99.15
2022-09-28T23:49:42.908Z,98.64
2022-09-28T23:52:48.523Z,97.80
2022-09-28T23:55:50.988Z,97.81
2022-09-28T23:58:53.493Z,98.85
